RUK weather

Rukum Chaurjahari Airport
Rukumkot, Rapti, Nepal

Public forecast

Using degrees Celsius for public forecast. Weather courtesy of forecast.io.

METAR (pilot weather report)

Closest report is Gorakhpur Airport, 131.5 nm (243.5 km) SSE. Retrieved 2019/09/21 08:30 UTC (0 seconds ago):

VEGK 210830Z VRB03KT 6000 SCT025 FEW030TCU SCT090 32/30 Q1005 TEMPO -TSRA

TAF (pilot weather forecast)

Closest forecast is Gorakhpur Airport, 131.5 nm (243.5 km) SSE. Retrieved 2019/09/21 06:30 UTC (2 hours ago):

TAF VEGK 210330Z 2106/2118 09005KT 6000 SCT025 SCT100 TEMPO 2108/2111 SCT020 FEW025TCU SCT100